Time;durP1;ratioP1;P1;durP2;ratioP2;P2;SDS_P1;SDS_P2;PMS_P1;PMS_P2;Temp;Humidity;BMP_temperature;BMP_pressure;BME280_temperature;BME280_humidity;BME280_pressure;Samples;Min_cycle;Max_cycle;Signal;HPM_P1;HPM_P2
2020/12/08 00:00:18;;;;;;;0.30;0.20;;;;;;;4.39;100.00;98830.34;4994796;28;20508;-55
2020/12/08 00:02:44;;;;;;;0.20;0.10;;;;;;;4.45;100.00;98833.66;4995210;28;20449;-54
2020/12/08 00:05:12;;;;;;;0.20;0.20;;;;;;;4.46;100.00;98840.63;4994636;28;20473;-55
2020/12/08 00:07:38;;;;;;;0.20;0.10;;;;;;;4.34;100.00;98842.75;4994606;28;20511;-53
2020/12/08 00:10:04;;;;;;;0.30;0.20;;;;;;;4.35;100.00;98832.19;4993017;28;20453;-55
2020/12/08 00:12:31;;;;;;;0.20;0.10;;;;;;;4.26;100.00;98835.06;4994891;28;20814;-54
2020/12/08 00:14:57;;;;;;;0.20;0.20;;;;;;;4.13;100.00;98831.03;4994369;28;21009;-54
2020/12/08 00:17:24;;;;;;;0.20;0.10;;;;;;;4.07;100.00;98821.53;4994854;28;20445;-55
2020/12/08 00:19:50;;;;;;;0.20;0.10;;;;;;;3.95;100.00;98823.59;4994294;28;20460;-54
2020/12/08 00:22:17;;;;;;;0.20;0.20;;;;;;;3.98;100.00;98829.66;4994601;28;20581;-55
2020/12/08 00:24:43;;;;;;;0.30;0.20;;;;;;;3.98;100.00;98832.31;4994312;28;20520;-55
2020/12/08 00:27:13;;;;;;;0.20;0.20;;;;;;;4.04;100.00;98828.63;4994379;28;20528;-55
2020/12/08 00:29:40;;;;;;;0.20;0.10;;;;;;;4.09;100.00;98817.09;4994389;28;20460;-56
2020/12/08 00:32:07;;;;;;;0.20;0.10;;;;;;;3.93;100.00;98825.41;4994347;28;20457;-54
2020/12/08 00:34:34;;;;;;;0.30;0.20;;;;;;;3.94;100.00;98828.00;4988032;28;20473;-52
2020/12/08 00:37:00;;;;;;;0.20;0.20;;;;;;;4.02;100.00;98828.69;4976460;28;20870;-53
2020/12/08 00:39:27;;;;;;;0.20;0.10;;;;;;;3.98;100.00;98827.03;4986185;28;20461;-54
2020/12/08 00:41:53;;;;;;;0.20;0.20;;;;;;;3.81;100.00;98826.59;4994093;28;20855;-54
2020/12/08 00:44:19;;;;;;;0.30;0.30;;;;;;;3.78;100.00;98830.16;4994173;28;20524;-57
2020/12/08 00:46:49;;;;;;;0.20;0.20;;;;;;;3.66;100.00;98821.72;4993910;28;20547;-53
2020/12/08 00:49:16;;;;;;;0.30;0.10;;;;;;;3.63;100.00;98833.16;4994040;28;20457;-54
2020/12/08 00:51:42;;;;;;;0.20;0.20;;;;;;;3.46;100.00;98832.72;4993231;28;20496;-54
2020/12/08 00:54:08;;;;;;;0.20;0.20;;;;;;;3.55;100.00;98822.81;4994171;28;20516;-54
2020/12/08 00:56:35;;;;;;;0.20;0.20;;;;;;;3.49;100.00;98828.25;4993881;28;20453;-55
2020/12/08 00:59:02;;;;;;;0.20;0.10;;;;;;;3.59;100.00;98828.88;4993878;28;20456;-54
2020/12/08 01:01:29;;;;;;;0.20;0.10;;;;;;;3.70;100.00;98821.63;4993565;28;20827;-55
2020/12/08 01:03:55;;;;;;;0.20;0.10;;;;;;;3.60;100.00;98828.00;4993642;28;20492;-55
2020/12/08 01:06:22;;;;;;;0.20;0.10;;;;;;;3.48;100.00;98823.03;4993678;28;20489;-54
2020/12/08 01:08:48;;;;;;;0.20;0.10;;;;;;;3.48;100.00;98820.41;4991993;28;20824;-54
2020/12/08 01:11:15;;;;;;;0.30;0.20;;;;;;;3.63;100.00;98819.16;4993457;28;20537;-56
2020/12/08 01:13:41;;;;;;;0.20;0.20;;;;;;;3.67;100.00;98824.28;4993532;28;20485;-56
2020/12/08 01:16:07;;;;;;;0.20;0.10;;;;;;;3.72;100.00;98824.19;4993343;28;20515;-55
2020/12/08 01:18:33;;;;;;;0.20;0.10;;;;;;;3.57;100.00;98825.44;4993279;28;20512;-57
2020/12/08 01:21:00;;;;;;;0.20;0.20;;;;;;;3.65;100.00;98823.47;4993182;28;20504;-56
2020/12/08 01:23:26;;;;;;;0.20;0.10;;;;;;;3.58;100.00;98831.56;4993332;28;20453;-56
2020/12/08 01:25:53;;;;;;;0.20;0.10;;;;;;;3.63;100.00;98822.66;4993060;28;20461;-55
2020/12/08 01:28:19;;;;;;;0.20;0.10;;;;;;;3.53;100.00;98821.13;4993602;28;21378;-56
2020/12/08 01:30:47;;;;;;;0.20;0.10;;;;;;;3.42;100.00;98820.53;4993324;28;20453;-56
2020/12/08 01:33:13;;;;;;;1.17;1.10;;;;;;;3.41;100.00;98817.03;4992958;28;20449;-56
2020/12/08 01:35:39;;;;;;;0.20;0.10;;;;;;;3.20;100.00;98807.91;4993071;28;20450;-56
2020/12/08 01:38:05;;;;;;;0.20;0.20;;;;;;;3.39;100.00;98818.84;4978505;28;20510;-55
2020/12/08 01:40:32;;;;;;;0.20;0.20;;;;;;;3.28;100.00;98813.84;4988925;28;20871;-56
2020/12/08 01:42:58;;;;;;;0.20;0.20;;;;;;;3.25;100.00;98808.66;4993181;28;20445;-53
2020/12/08 01:45:25;;;;;;;0.20;0.10;;;;;;;3.23;100.00;98814.84;4992853;28;20477;-56
2020/12/08 01:47:52;;;;;;;0.20;0.10;;;;;;;3.24;100.00;98811.31;4992989;28;20481;-55
2020/12/08 01:50:19;;;;;;;0.20;0.10;;;;;;;3.22;100.00;98815.75;4993067;28;20449;-56
2020/12/08 01:52:47;;;;;;;0.20;0.10;;;;;;;3.24;100.00;98817.44;4992958;28;20568;-55
2020/12/08 01:55:14;;;;;;;0.20;0.10;;;;;;;3.22;100.00;98815.75;4993007;28;20820;-56
2020/12/08 01:57:42;;;;;;;0.20;0.10;;;;;;;3.10;100.00;98824.75;4992702;28;20950;-55
2020/12/08 02:00:09;;;;;;;0.20;0.10;;;;;;;3.14;100.00;98822.91;4992767;28;20965;-57
2020/12/08 02:02:35;;;;;;;0.30;0.20;;;;;;;3.07;100.00;98814.34;4992365;28;20460;-56
2020/12/08 02:05:02;;;;;;;0.20;0.10;;;;;;;3.08;100.00;98823.94;4992316;28;20484;-56
2020/12/08 02:07:29;;;;;;;0.20;0.10;;;;;;;3.04;100.00;98824.91;4992828;28;20501;-57
2020/12/08 02:09:55;;;;;;;0.20;0.10;;;;;;;3.12;100.00;98833.47;4990961;28;20453;-56
2020/12/08 02:12:22;;;;;;;0.20;0.10;;;;;;;3.11;100.00;98841.38;4992697;28;20508;-55
2020/12/08 02:14:48;;;;;;;0.20;0.10;;;;;;;3.07;100.00;98837.97;4979883;28;20527;-56
2020/12/08 02:17:14;;;;;;;0.20;0.10;;;;;;;3.09;100.00;98833.53;4992517;28;20506;-56
2020/12/08 02:19:43;;;;;;;0.20;0.10;;;;;;;2.98;100.00;98841.63;4984582;28;20461;-56
2020/12/08 02:22:09;;;;;;;0.20;0.10;;;;;;;3.16;100.00;98839.53;4992891;28;20449;-56
2020/12/08 02:24:35;;;;;;;0.20;0.10;;;;;;;3.04;100.00;98834.53;4988878;28;20474;-57
2020/12/08 02:27:02;;;;;;;0.20;0.20;;;;;;;3.01;100.00;98842.47;4984087;28;20496;-56
2020/12/08 02:29:28;;;;;;;0.20;0.10;;;;;;;3.09;100.00;98833.53;4992830;28;20449;-55
2020/12/08 02:31:54;;;;;;;0.20;0.17;;;;;;;3.15;100.00;98841.28;4992944;28;20461;-56
2020/12/08 02:34:20;;;;;;;0.20;0.10;;;;;;;3.04;100.00;98834.53;4992784;28;20473;-56
2020/12/08 02:36:55;;;;;;;0.20;0.10;;;;;;;3.07;100.00;98840.59;4983529;28;20537;-55
2020/12/08 02:39:22;;;;;;;0.20;0.10;;;;;;;3.22;100.00;98847.25;4983942;28;20448;-56
2020/12/08 02:41:48;;;;;;;0.20;0.10;;;;;;;3.20;100.00;98849.06;4992944;28;20449;-55
2020/12/08 02:44:14;;;;;;;0.20;0.20;;;;;;;3.23;100.00;98841.09;4992491;28;20480;-56
2020/12/08 02:46:40;;;;;;;0.20;0.10;;;;;;;3.25;100.00;98842.78;4992583;28;21082;-55
2020/12/08 02:49:06;;;;;;;0.50;0.50;;;;;;;3.18;100.00;98838.59;4992595;28;20511;-54
2020/12/08 02:51:32;;;;;;;0.20;0.10;;;;;;;3.19;100.00;98834.19;4992809;28;20856;-55
2020/12/08 02:53:58;;;;;;;0.20;0.10;;;;;;;3.18;100.00;98830.72;4991072;28;20528;-55
2020/12/08 02:56:25;;;;;;;0.20;0.20;;;;;;;3.06;100.00;98835.38;4992893;28;20450;-55
2020/12/08 02:58:51;;;;;;;0.20;0.10;;;;;;;2.92;100.00;98833.91;4992677;28;20453;-55
2020/12/08 03:01:20;;;;;;;0.20;0.10;;;;;;;3.04;100.00;98834.53;4992744;28;20877;-55
2020/12/08 03:03:46;;;;;;;0.20;0.10;;;;;;;2.89;100.00;98826.09;4992441;28;20472;-54
2020/12/08 03:06:12;;;;;;;0.20;0.10;;;;;;;2.85;100.00;98834.91;4992421;28;20517;-56
2020/12/08 03:08:38;;;;;;;0.30;0.10;;;;;;;2.86;100.00;98834.03;4990112;28;20983;-56
2020/12/08 03:11:04;;;;;;;0.20;0.10;;;;;;;2.86;100.00;98835.78;4992729;28;20449;-55
2020/12/08 03:13:32;;;;;;;0.20;0.10;;;;;;;2.90;100.00;98838.34;4993399;28;20477;-56
2020/12/08 03:15:58;;;;;;;0.20;0.10;;;;;;;2.74;100.00;98825.53;4996101;28;20804;-57
2020/12/08 03:18:24;;;;;;;0.30;0.10;;;;;;;2.77;100.00;98831.59;4990057;28;20944;-57
2020/12/08 03:20:51;;;;;;;0.20;0.20;;;;;;;2.84;100.00;98827.09;4989048;28;20449;-57
2020/12/08 03:23:17;;;;;;;0.20;0.20;;;;;;;2.76;100.00;98824.63;4995626;28;20479;-56
2020/12/08 03:25:43;;;;;;;2.00;1.90;;;;;;;2.71;100.00;98821.22;4995876;28;20504;-56
2020/12/08 03:28:09;;;;;;;0.20;0.10;;;;;;;2.63;100.00;98815.28;4995663;28;21065;-57
2020/12/08 03:30:35;;;;;;;0.20;0.10;;;;;;;2.63;100.00;98808.28;4995798;28;20504;-56
2020/12/08 03:33:01;;;;;;;0.20;0.10;;;;;;;2.75;100.00;98807.19;4995630;28;20954;-56
2020/12/08 03:35:27;;;;;;;0.20;0.10;;;;;;;2.74;100.00;98810.69;4995741;28;20469;-57
2020/12/08 03:37:53;;;;;;;0.20;0.10;;;;;;;2.70;100.00;98814.25;4981958;28;20449;-54
2020/12/08 03:40:20;;;;;;;0.20;0.13;;;;;;;2.49;100.00;98802.47;4989572;28;20456;-55
2020/12/08 03:42:46;;;;;;;0.20;0.10;;;;;;;2.50;100.00;98805.94;4995546;28;20553;-55
2020/12/08 03:45:12;;;;;;;0.20;0.10;;;;;;;2.44;100.00;98792.94;4995459;28;20481;-55
2020/12/08 03:47:38;;;;;;;0.20;0.10;;;;;;;2.55;100.00;98802.31;4995550;28;20559;-56
2020/12/08 03:50:04;;;;;;;0.20;0.10;;;;;;;2.48;100.00;98799.88;4995138;28;20507;-56
2020/12/08 03:52:30;;;;;;;0.20;0.10;;;;;;;2.41;100.00;98809.59;4995272;28;20457;-55
2020/12/08 03:54:57;;;;;;;0.20;0.10;;;;;;;2.39;100.00;98798.28;4995066;28;20477;-55
2020/12/08 03:57:24;;;;;;;0.20;0.10;;;;;;;2.47;100.00;98803.34;4995426;28;20449;-56
2020/12/08 03:59:50;;;;;;;0.20;0.13;;;;;;;2.32;100.00;98802.78;4995109;28;20540;-56
2020/12/08 04:02:16;;;;;;;0.20;0.10;;;;;;;2.38;100.00;98802.66;4995277;28;20457;-56
2020/12/08 04:04:42;;;;;;;0.20;0.10;;;;;;;2.24;100.00;98798.59;4994953;28;20844;-55
2020/12/08 04:07:08;;;;;;;0.20;0.10;;;;;;;2.10;100.00;98792.75;4995245;28;20494;-56
2020/12/08 04:09:34;;;;;;;0.20;0.10;;;;;;;2.00;100.00;98798.16;4992287;28;20508;-55
2020/12/08 04:12:01;;;;;;;0.20;0.10;;;;;;;2.04;100.00;98812.91;4969197;28;20518;-56
2020/12/08 04:14:27;;;;;;;0.20;0.10;;;;;;;2.01;100.00;98822.59;4994964;28;20470;-56
2020/12/08 04:16:53;;;;;;;0.20;0.20;;;;;;;2.06;100.00;98820.78;4994978;28;20503;-55
2020/12/08 04:19:19;;;;;;;0.20;0.10;;;;;;;2.13;100.00;98827.63;4994663;28;20453;-55
2020/12/08 04:21:45;;;;;;;0.20;0.10;;;;;;;2.13;100.00;98827.63;4995124;28;20453;-56
2020/12/08 04:24:12;;;;;;;0.20;0.10;;;;;;;2.16;100.00;98826.69;4994468;28;21071;-55
2020/12/08 04:26:38;;;;;;;0.20;0.20;;;;;;;2.12;100.00;98820.66;4993996;28;20517;-56
2020/12/08 04:29:04;;;;;;;0.20;0.10;;;;;;;2.16;100.00;98827.56;4994534;28;20461;-54
2020/12/08 04:31:30;;;;;;;0.20;0.10;;;;;;;2.04;100.00;98828.63;4994600;28;20947;-55
2020/12/08 04:33:58;;;;;;;0.20;0.10;;;;;;;2.08;100.00;98843.44;4994336;28;20505;-55
2020/12/08 04:36:24;;;;;;;0.20;0.10;;;;;;;2.04;100.00;98841.72;4988484;28;20450;-56
2020/12/08 04:38:51;;;;;;;0.20;0.10;;;;;;;1.96;100.00;98846.25;4981430;28;20446;-56
2020/12/08 04:41:25;;;;;;;0.20;0.10;;;;;;;2.06;100.00;98846.97;4994547;28;20460;-54
2020/12/08 04:43:53;;;;;;;0.20;0.10;;;;;;;1.99;100.00;98848.81;4994356;28;20469;-55
2020/12/08 04:46:21;;;;;;;0.20;0.10;;;;;;;1.99;100.00;98851.44;4994326;28;20486;-54
2020/12/08 04:48:48;;;;;;;0.20;0.10;;;;;;;1.92;100.00;98848.94;4994561;28;20461;-55
2020/12/08 04:51:15;;;;;;;0.20;0.10;;;;;;;1.96;100.00;98850.63;4994539;28;20453;-55
2020/12/08 04:53:42;;;;;;;0.20;0.20;;;;;;;1.93;100.00;98840.22;4994135;28;20844;-55
2020/12/08 04:56:09;;;;;;;0.20;0.10;;;;;;;1.94;100.00;98839.31;4994163;28;20476;-55
2020/12/08 04:58:35;;;;;;;0.20;0.10;;;;;;;1.94;100.00;98840.19;4994082;28;20457;-56
2020/12/08 05:01:01;;;;;;;0.20;0.20;;;;;;;1.97;100.00;98836.66;4994183;28;20991;-55
2020/12/08 05:03:30;;;;;;;0.20;0.10;;;;;;;2.00;100.00;98837.44;4994082;28;20456;-55
2020/12/08 05:05:56;;;;;;;0.20;0.10;;;;;;;2.03;100.00;98841.75;4993926;28;20457;-55
2020/12/08 05:08:22;;;;;;;0.20;0.10;;;;;;;2.12;100.00;98840.75;4992070;28;21040;-55
2020/12/08 05:10:48;;;;;;;0.20;0.10;;;;;;;2.08;100.00;98843.44;4993905;28;20805;-55
2020/12/08 05:13:27;;;;;;;0.20;0.10;;;;;;;2.13;100.00;98838.09;4993659;28;20449;-53
2020/12/08 05:16:04;;;;;;;0.20;0.10;;;;;;;2.18;100.00;98840.63;4994100;28;20867;-53
2020/12/08 05:18:35;;;;;;;0.20;0.10;;;;;;;2.13;100.00;98832.84;4968841;28;20515;-56
2020/12/08 05:21:19;;;;;;;0.20;0.10;;;;;;;2.16;100.00;98830.16;4992511;28;20824;-56
2020/12/08 05:23:46;;;;;;;0.30;0.10;;;;;;;2.22;100.00;98827.44;4993683;28;20515;-55
2020/12/08 05:26:13;;;;;;;0.20;0.10;;;;;;;2.21;100.00;98825.72;4993505;28;20549;-55
2020/12/08 05:28:41;;;;;;;0.20;0.10;;;;;;;2.29;100.00;98825.56;4993825;28;20806;-56
2020/12/08 05:31:07;;;;;;;0.20;0.10;;;;;;;2.29;100.00;98825.56;4993460;28;20505;-55
2020/12/08 05:33:33;;;;;;;0.20;0.20;;;;;;;2.32;100.00;98828.13;4993594;28;20575;-55
2020/12/08 05:36:00;;;;;;;0.20;0.10;;;;;;;2.27;100.00;98828.22;4990469;28;20517;-55
2020/12/08 05:38:36;;;;;;;0.20;0.20;;;;;;;2.26;100.00;98823.88;4998256;28;20842;-55
2020/12/08 05:41:07;;;;;;;0.37;0.37;;;;;;;2.33;100.00;98821.97;4993349;28;20775;-55
2020/12/08 05:43:38;;;;;;;0.20;0.10;;;;;;;2.23;100.00;98829.19;4992941;28;21045;-55
2020/12/08 05:46:09;;;;;;;0.67;0.67;;;;;;;2.32;100.00;98822.88;4993141;28;20461;-55
2020/12/08 05:48:37;;;;;;;0.20;0.20;;;;;;;2.31;100.00;98823.78;4992996;28;20500;-55
2020/12/08 05:51:07;;;;;;;0.20;0.10;;;;;;;2.30;100.00;98822.91;4993021;28;20449;-54
2020/12/08 05:53:34;;;;;;;0.20;0.10;;;;;;;2.39;100.00;98827.13;4992949;28;20881;-56
2020/12/08 05:56:07;;;;;;;0.20;0.10;;;;;;;2.32;100.00;98834.22;4993010;28;20973;-55
2020/12/08 05:58:35;;;;;;;0.20;0.10;;;;;;;2.24;100.00;98836.16;4992684;28;20450;-55
2020/12/08 06:01:06;;;;;;;0.20;0.10;;;;;;;2.23;100.00;98831.81;4993128;28;20458;-55
2020/12/08 06:03:32;;;;;;;0.20;0.10;;;;;;;2.23;100.00;98831.81;4993090;28;20852;-56
2020/12/08 06:06:09;;;;;;;0.20;0.10;;;;;;;2.30;100.00;98838.63;4993246;28;20492;-56
2020/12/08 06:08:43;;;;;;;0.20;0.10;;;;;;;2.45;100.00;98847.09;4990977;28;20966;-55
2020/12/08 06:11:09;;;;;;;0.20;0.10;;;;;;;2.41;100.00;98843.69;4992640;28;20460;-54
2020/12/08 06:13:39;;;;;;;0.20;0.10;;;;;;;2.31;100.00;98845.59;4992842;28;20473;-56
2020/12/08 06:16:19;;;;;;;0.20;0.10;;;;;;;2.30;100.00;98845.63;4993071;28;20460;-55
2020/12/08 06:18:46;;;;;;;0.20;0.10;;;;;;;2.34;100.00;98842.94;4992932;28;20500;-55
2020/12/08 06:21:24;;;;;;;0.20;0.10;;;;;;;2.35;100.00;98835.94;4992760;28;20469;-55
2020/12/08 06:23:55;;;;;;;0.20;0.10;;;;;;;2.30;100.00;98829.91;4992540;28;20473;-56
2020/12/08 06:26:27;;;;;;;0.20;0.10;;;;;;;2.42;100.00;98836.69;4992551;28;20888;-56
2020/12/08 06:28:54;;;;;;;0.20;0.10;;;;;;;2.33;100.00;98836.00;4992720;28;20464;-55
2020/12/08 06:31:22;;;;;;;0.20;0.10;;;;;;;2.38;100.00;98836.75;4992893;28;20453;-56
2020/12/08 06:33:56;;;;;;;0.20;0.10;;;;;;;2.41;100.00;98841.06;4992948;28;20474;-55
2020/12/08 06:36:27;;;;;;;0.20;0.10;;;;;;;2.33;100.00;98845.56;4962131;28;20535;-55
2020/12/08 06:39:00;;;;;;;0.20;0.10;;;;;;;2.29;100.00;98843.91;4980221;28;20468;-55
2020/12/08 06:41:28;;;;;;;0.20;0.10;;;;;;;2.34;100.00;98853.44;4992861;28;20453;-56
2020/12/08 06:43:54;;;;;;;0.20;0.20;;;;;;;2.36;100.00;98849.03;4992384;28;20532;-54
2020/12/08 06:46:21;;;;;;;0.20;0.10;;;;;;;2.35;100.00;98849.06;4992809;28;20449;-54
2020/12/08 06:49:08;;;;;;;0.20;0.10;;;;;;;2.35;100.00;98854.31;4994134;28;20480;-55
2020/12/08 06:51:35;;;;;;;0.20;0.10;;;;;;;2.47;100.00;98858.44;4996065;28;20451;-55
2020/12/08 06:54:14;;;;;;;0.20;0.10;;;;;;;2.43;100.00;98849.75;4996431;28;20477;-54
2020/12/08 06:56:41;;;;;;;0.20;0.20;;;;;;;2.42;100.00;98839.31;4996505;28;20456;-55
2020/12/08 06:59:08;;;;;;;0.20;0.10;;;;;;;2.44;100.00;98843.63;4996600;28;20866;-54
2020/12/08 07:01:35;;;;;;;0.30;0.10;;;;;;;2.46;100.00;98844.44;4995985;28;20453;-55
2020/12/08 07:04:04;;;;;;;0.20;0.10;;;;;;;2.41;100.00;98850.69;4995882;28;20587;-55
2020/12/08 07:06:33;;;;;;;0.20;0.20;;;;;;;2.38;100.00;98849.84;4996069;28;20460;-55
2020/12/08 07:08:59;;;;;;;0.20;0.10;;;;;;;2.43;100.00;98860.25;4992735;28;20452;-55
2020/12/08 07:11:25;;;;;;;0.20;0.10;;;;;;;2.41;100.00;98859.41;4995976;28;20449;-55
2020/12/08 07:13:59;;;;;;;0.20;0.10;;;;;;;2.42;100.00;98861.16;4995983;28;20531;-55
2020/12/08 07:16:27;;;;;;;0.87;0.87;;;;;;;2.40;100.00;98859.44;4995702;28;20943;-55
2020/12/08 07:18:57;;;;;;;0.20;0.10;;;;;;;2.32;100.00;98859.59;4996336;28;20801;-55
2020/12/08 07:21:24;;;;;;;0.20;0.10;;;;;;;2.37;100.00;98856.00;4995594;28;20449;-55
2020/12/08 07:24:09;;;;;;;0.20;0.10;;;;;;;2.40;100.00;98859.44;4996211;28;20473;-56
2020/12/08 07:26:35;;;;;;;0.20;0.10;;;;;;;2.42;100.00;98858.53;4995604;28;20580;-55
2020/12/08 07:29:01;;;;;;;0.20;0.10;;;;;;;2.51;100.00;98857.50;4995536;28;20445;-55
2020/12/08 07:31:30;;;;;;;0.20;0.10;;;;;;;2.39;100.00;98855.97;4995525;28;20461;-55
2020/12/08 07:33:56;;;;;;;0.20;0.10;;;;;;;2.40;100.00;98859.44;4995749;28;20553;-55
2020/12/08 07:36:33;;;;;;;0.20;0.20;;;;;;;2.30;100.00;98862.22;4989165;28;20952;-55
2020/12/08 07:39:01;;;;;;;0.20;0.10;;;;;;;2.46;100.00;98868.06;4983897;28;20471;-55
2020/12/08 07:41:29;;;;;;;0.20;0.10;;;;;;;2.45;100.00;98866.31;4995337;28;20528;-55
2020/12/08 07:43:57;;;;;;;0.20;0.10;;;;;;;2.50;100.00;98866.25;4995397;28;20473;-55
2020/12/08 07:46:31;;;;;;;0.20;0.10;;;;;;;2.44;100.00;98872.47;4995392;28;20504;-55
2020/12/08 07:49:07;;;;;;;0.20;0.10;;;;;;;2.50;100.00;98879.38;4995242;28;21002;-56
2020/12/08 07:51:35;;;;;;;0.83;0.83;;;;;;;2.62;100.00;98889.63;4995291;28;20453;-55
2020/12/08 07:54:02;;;;;;;0.20;0.10;;;;;;;2.64;100.00;98886.06;4995306;28;20543;-55
2020/12/08 07:56:30;;;;;;;0.20;0.10;;;;;;;2.64;100.00;98877.34;4995588;28;20464;-56
2020/12/08 07:58:57;;;;;;;0.20;0.10;;;;;;;2.68;100.00;98890.34;4969102;28;20884;-56
2020/12/08 08:01:25;;;;;;;0.20;0.10;;;;;;;2.65;100.00;98895.66;4994026;28;20456;-56
2020/12/08 08:04:11;;;;;;;0.20;0.20;;;;;;;2.75;100.00;98903.38;4994992;28;20535;-55
2020/12/08 08:06:38;;;;;;;0.20;0.10;;;;;;;2.78;100.00;98904.16;4994626;28;20457;-56
2020/12/08 08:09:08;;;;;;;0.20;0.10;;;;;;;2.75;100.00;98903.38;4992912;28;20453;-56
2020/12/08 08:11:35;;;;;;;0.20;0.20;;;;;;;2.76;100.00;98895.47;4995122;28;20935;-55
2020/12/08 08:14:05;;;;;;;0.20;0.10;;;;;;;2.74;100.00;98904.25;4994844;28;20473;-56
2020/12/08 08:16:33;;;;;;;0.20;0.10;;;;;;;2.77;100.00;98906.81;4994669;28;20508;-56
2020/12/08 08:18:59;;;;;;;0.20;0.10;;;;;;;2.89;100.00;98912.69;4994678;28;20446;-56
2020/12/08 08:21:25;;;;;;;0.20;0.10;;;;;;;2.88;100.00;98910.97;4995112;28;20464;-56
2020/12/08 08:23:52;;;;;;;0.20;0.10;;;;;;;2.92;100.00;98911.78;4995064;28;20473;-55
2020/12/08 08:26:18;;;;;;;0.20;0.10;;;;;;;2.87;100.00;98911.84;4994799;28;20458;-56
2020/12/08 08:28:44;;;;;;;0.20;0.10;;;;;;;2.85;100.00;98911.00;4994368;28;20493;-54
2020/12/08 08:31:10;;;;;;;0.20;0.10;;;;;;;2.94;100.00;98908.22;4994493;28;20460;-56
2020/12/08 08:33:37;;;;;;;0.20;0.10;;;;;;;2.92;100.00;98910.00;4994354;28;20473;-55
2020/12/08 08:36:03;;;;;;;0.20;0.10;;;;;;;3.08;100.00;98894.81;4990976;28;20458;-56
2020/12/08 08:38:29;;;;;;;0.20;0.10;;;;;;;2.97;100.00;98902.03;4979646;28;20502;-56
2020/12/08 08:40:57;;;;;;;0.20;0.10;;;;;;;3.01;100.00;98905.44;4993500;28;20496;-55
2020/12/08 08:43:25;;;;;;;0.20;0.10;;;;;;;3.03;100.00;98896.69;4994337;28;20454;-55
2020/12/08 08:45:52;;;;;;;0.30;0.20;;;;;;;3.18;100.00;98912.09;4993150;28;20449;-56
2020/12/08 08:48:19;;;;;;;0.20;0.10;;;;;;;3.18;100.00;98912.09;4994234;28;20497;-56
2020/12/08 08:50:46;;;;;;;0.20;0.10;;;;;;;3.05;100.00;98907.13;4994337;28;20474;-56
2020/12/08 08:53:14;;;;;;;0.20;0.10;;;;;;;3.17;100.00;98904.25;4994184;28;20540;-56
2020/12/08 08:55:40;;;;;;;0.20;0.10;;;;;;;3.17;100.00;98905.13;4993743;28;20504;-56
2020/12/08 08:58:13;;;;;;;0.20;0.10;;;;;;;3.27;100.00;98906.63;4994117;28;20477;-56
2020/12/08 09:00:39;;;;;;;0.20;0.10;;;;;;;3.28;100.00;98905.72;4994450;28;20453;-55
2020/12/08 09:03:06;;;;;;;0.20;0.10;;;;;;;3.35;100.00;98905.63;4993804;28;20962;-56
2020/12/08 09:05:33;;;;;;;0.20;0.10;;;;;;;3.43;100.00;98911.56;4993977;28;20556;-53
2020/12/08 09:07:59;;;;;;;0.20;0.20;;;;;;;3.47;100.00;98927.22;4991331;28;20513;-56
2020/12/08 09:10:26;;;;;;;0.20;0.20;;;;;;;3.48;100.00;98931.56;4994105;28;20454;-56
2020/12/08 09:12:52;;;;;;;0.20;0.10;;;;;;;3.51;100.00;98936.75;4993757;28;20524;-56
2020/12/08 09:15:18;;;;;;;0.20;0.10;;;;;;;3.42;100.00;98925.56;4993370;28;20545;-56
2020/12/08 09:17:44;;;;;;;0.20;0.10;;;;;;;3.48;100.00;98928.94;4993772;28;20453;-56
2020/12/08 09:20:10;;;;;;;0.20;0.10;;;;;;;3.63;100.00;98940.88;4993718;28;20951;-55
2020/12/08 09:22:37;;;;;;;0.83;0.83;;;;;;;3.64;100.00;98936.50;4993466;28;20457;-55
2020/12/08 09:25:04;;;;;;;0.20;0.10;;;;;;;3.77;100.00;98933.53;4993658;28;20469;-56
2020/12/08 09:27:31;;;;;;;0.20;0.20;;;;;;;3.84;100.00;98934.28;4993431;28;21006;-56
2020/12/08 09:29:57;;;;;;;0.20;0.10;;;;;;;3.71;100.00;98931.06;4993129;28;20457;-56
2020/12/08 09:32:23;;;;;;;0.20;0.10;;;;;;;3.77;100.00;98932.69;4993369;28;20460;-55
2020/12/08 09:34:49;;;;;;;0.20;0.10;;;;;;;3.83;100.00;98924.63;4993571;28;20465;-56
2020/12/08 09:37:15;;;;;;;0.20;0.10;;;;;;;3.89;100.00;98926.28;4982193;28;20458;-55
2020/12/08 09:39:41;;;;;;;0.20;0.10;;;;;;;3.97;100.00;98924.31;4985077;28;20801;-56
2020/12/08 09:42:08;;;;;;;0.20;0.10;;;;;;;4.11;100.00;98924.84;4993279;28;20449;-53
2020/12/08 09:44:34;;;;;;;0.20;0.20;;;;;;;4.09;100.00;98921.38;4993247;28;20470;-56
2020/12/08 09:47:00;;;;;;;0.20;0.10;;;;;;;4.04;100.00;98915.38;4993110;28;20489;-55
2020/12/08 09:49:27;;;;;;;0.20;0.10;;;;;;;4.12;100.00;98916.94;4993338;28;20838;-55
2020/12/08 09:51:53;;;;;;;0.20;0.10;;;;;;;4.23;100.00;98916.66;4993027;28;20461;-56
2020/12/08 09:54:19;;;;;;;0.20;0.10;;;;;;;4.36;100.00;98923.31;4993103;28;20474;-56
2020/12/08 09:56:46;;;;;;;0.20;0.10;;;;;;;4.28;100.00;98920.03;4978227;28;20952;-55
2020/12/08 09:59:13;;;;;;;0.20;0.10;;;;;;;4.41;100.00;98920.59;4983544;28;20792;-56
2020/12/08 10:01:39;;;;;;;0.20;0.10;;;;;;;4.45;100.00;98916.97;4993182;28;20508;-58
2020/12/08 10:04:07;;;;;;;0.20;0.20;;;;;;;4.46;100.00;98921.34;4993053;28;20473;-55
2020/12/08 10:06:33;;;;;;;0.20;0.20;;;;;;;4.45;100.00;98924.88;4992896;28;20475;-56
2020/12/08 10:08:59;;;;;;;0.20;0.10;;;;;;;4.28;100.00;98934.97;4993236;28;20453;-55
2020/12/08 10:11:26;;;;;;;0.30;0.20;;;;;;;4.32;100.00;98937.47;4993197;28;20453;-56
2020/12/08 10:13:53;;;;;;;0.20;0.10;;;;;;;4.36;100.00;98928.59;4993210;28;20496;-56
2020/12/08 10:16:23;;;;;;;0.20;0.10;;;;;;;4.62;100.00;98934.94;4993290;28;20450;-56
2020/12/08 10:18:52;;;;;;;0.20;0.10;;;;;;;4.46;100.00;98924.81;4993045;28;20444;-56
2020/12/08 10:21:23;;;;;;;0.20;0.10;;;;;;;4.53;100.00;98920.28;4992741;28;20857;-55
2020/12/08 10:23:51;;;;;;;0.20;0.10;;;;;;;4.52;100.00;98915.91;4994484;28;20473;-54
2020/12/08 10:26:19;;;;;;;0.20;0.10;;;;;;;4.58;100.00;98917.53;4990136;28;20449;-56
2020/12/08 10:28:45;;;;;;;0.20;0.10;;;;;;;4.50;99.28;98901.91;4996726;28;20501;-56
2020/12/08 10:31:15;;;;;;;0.20;0.10;;;;;;;4.57;99.09;98906.13;4997062;28;20528;-54
2020/12/08 10:33:42;;;;;;;0.20;0.10;;;;;;;4.57;98.76;98907.91;4996716;28;20473;-55
2020/12/08 10:36:10;;;;;;;0.20;0.10;;;;;;;4.65;99.11;98908.53;4992553;28;20834;-56
2020/12/08 10:38:37;;;;;;;0.20;0.10;;;;;;;4.55;99.33;98913.22;4989823;28;20454;-56
2020/12/08 10:41:05;;;;;;;0.20;0.10;;;;;;;4.54;99.04;98916.75;4970416;28;20633;-56
2020/12/08 10:43:31;;;;;;;0.20;0.10;;;;;;;4.47;99.00;98917.78;4996380;28;20829;-55
2020/12/08 10:46:03;;;;;;;0.20;0.10;;;;;;;4.49;99.04;98913.34;4972337;28;20520;-56
2020/12/08 10:48:31;;;;;;;0.20;0.13;;;;;;;4.58;99.45;98918.38;4996652;28;20489;-56
2020/12/08 10:50:57;;;;;;;0.20;0.10;;;;;;;4.69;99.38;98931.25;4996688;28;20456;-56
2020/12/08 10:53:23;;;;;;;2.23;2.00;;;;;;;4.67;98.89;98928.69;4996771;28;20531;-55
2020/12/08 10:55:49;;;;;;;0.20;0.10;;;;;;;4.56;99.58;98927.22;4996087;28;20939;-56
2020/12/08 10:58:17;;;;;;;0.20;0.10;;;;;;;4.65;99.70;98929.59;4996496;28;20560;-56
2020/12/08 11:00:43;;;;;;;0.20;0.10;;;;;;;4.56;100.00;98932.50;4996650;28;20456;-56
2020/12/08 11:03:10;;;;;;;0.20;0.20;;;;;;;4.58;99.39;98928.03;4996583;28;20449;-56
2020/12/08 11:05:36;;;;;;;0.20;0.10;;;;;;;4.68;99.65;98929.53;4996387;28;20453;-56
2020/12/08 11:08:02;;;;;;;0.20;0.10;;;;;;;4.36;99.63;98931.22;4995258;28;20488;-56
2020/12/08 11:10:28;;;;;;;0.20;0.10;;;;;;;4.52;100.00;98936.09;4977074;28;20484;-56
2020/12/08 11:12:54;;;;;;;0.20;0.10;;;;;;;4.54;99.10;98924.63;4973429;28;20940;-55
2020/12/08 11:15:21;;;;;;;0.67;0.67;;;;;;;4.69;98.68;98921.59;4967723;28;20481;-56
2020/12/08 11:17:47;;;;;;;0.20;0.10;;;;;;;4.43;99.25;98924.91;4990962;28;20456;-56
2020/12/08 11:20:14;;;;;;;0.20;0.10;;;;;;;4.38;98.81;98915.41;4996019;28;20449;-56
2020/12/08 11:22:40;;;;;;;0.20;0.20;;;;;;;4.37;98.95;98914.53;4996058;28;20449;-56
2020/12/08 11:25:06;;;;;;;0.20;0.10;;;;;;;4.39;98.82;98912.75;4996128;28;20473;-55
2020/12/08 11:27:33;;;;;;;0.20;0.10;;;;;;;4.64;98.87;98912.09;4995896;28;20495;-56
2020/12/08 11:29:59;;;;;;;0.20;0.10;;;;;;;4.53;97.91;98914.16;4995980;28;20445;-56
2020/12/08 11:32:26;;;;;;;0.20;0.10;;;;;;;4.54;99.01;98910.63;4995813;28;20524;-56
2020/12/08 11:34:52;;;;;;;0.20;0.20;;;;;;;4.41;98.19;98908.31;4995428;28;20496;-56